Atlantic Elm — 9HA3054 — position and weather

sailwx.info

Track history (hours):
 
Tides and Currents Weather Stations Pressure Air Temp Water Temp Dewpoint Dewpoint Depression Visibility Wind Speed Wind Dir Waves Ship Positions

Atlantic Elm

Last reported at 2018-Apr-26 22:54 UTC. Time now 2018-Apr-27 00:56 UTC.
Position N 29°44' W 095°13'.

Length 190 m; draft 11.8 m.

Type: Cargo ship. MMSI: 229081000.

Date/timePositionNaut miles runAvg speedWind from/ knotsBaromVisibWave heightAir tempDewpointWater temp
2018-Apr-26 22:54N 29°44' W 095°13'0 0.0
2018-Apr-26 22:27N 29°44' W 095°13'0 0.0
2018-Apr-26 17:06N 29°44' W 095°13'0 0.0
2018-Apr-26 16:39N 29°44' W 095°13'0 0.0
2018-Apr-26 15:06N 29°44' W 095°13'0 0.0
2018-Apr-26 15:00N 29°44' W 095°13'0 0.0
2018-Apr-25 12:35N 29°44' W 095°13'0 0.0
2018-Apr-25 12:23N 29°44' W 095°13'0 0.0
2018-Apr-25 11:59N 29°44' W 095°13'0 0.0
2018-Apr-25 11:29N 29°44' W 095°13'0 0.0
2018-Apr-25 07:35N 29°44' W 095°13'0 0.0
2018-Apr-25 07:29N 29°44' W 095°13'0 0.0
2018-Apr-25 06:47N 29°44' W 095°13'0 0.0
2018-Apr-25 03:59N 29°44' W 095°13'0 0.0
2018-Apr-25 03:29N 29°44' W 095°13'0 0.0
2018-Apr-24 17:39N 29°44' W 095°13'0 0.0
2018-Apr-24 17:29N 29°44' W 095°13'1 1.2
2018-Apr-24 17:00N 29°44' W 095°12'2 3.9
2018-Apr-24 16:29N 29°45' W 095°10'2 5.1
2018-Apr-24 16:00N 29°44' W 095°08'3 5.3
2018-Apr-24 15:30N 29°46' W 095°05'3 6.0
2018-Apr-24 15:00N 29°44' W 095°03'3 5.6
2018-Apr-24 14:30N 29°42' W 095°00'4 7.7
2018-Apr-24 14:00N 29°39' W 094°58'4 8.4
2018-Apr-24 13:30N 29°35' W 094°56'5 9.4
2018-Apr-24 13:00N 29°31' W 094°53'5 9.7
2018-Apr-24 12:30N 29°27' W 094°50'5 9.2
2018-Apr-24 12:00N 29°22' W 094°48'4 7.4
2018-Apr-24 11:30N 29°21' W 094°45'5 8.9
2018-Apr-24 10:56N 29°19' W 094°39'3 7.9
2018-Apr-24 10:30N 29°18' W 094°35'1 2.7
2018-Apr-24 10:00N 29°17' W 094°34'2 4.8
2018-Apr-24 09:29N 29°15' W 094°32'3 6.4
2018-Apr-24 09:00N 29°13' W 094°30'3 6.5
2018-Apr-24 08:29N 29°11' W 094°27'4 7.0
2018-Apr-24 07:59N 29°08' W 094°25'  
2018-Apr-20 04:37N 25°32' W 079°30'110.4
2018-Apr-20 04:30N 25°33' W 079°30'510.3
2018-Apr-20 03:58N 25°39' W 079°29'510.4
2018-Apr-20 03:30N 25°43' W 079°28'510.2
2018-Apr-20 03:00N 25°48' W 079°27'  
Track history (hours):
 
Tides and Currents Weather Stations Pressure Air Temp Water Temp Dewpoint Dewpoint Depression Visibility Wind Speed Wind Dir Waves Ship Positions

Atlantic Elm

Last reported at 2018-Apr-26 22:54 UTC. Time now 2018-Apr-27 00:56 UTC.
Position N 29°44' W 095°13'.

Length 190 m; draft 11.8 m.

Type: Cargo ship. MMSI: 229081000.

Date/timePositionNaut miles runAvg speedWind from/ knotsBaromVisibWave heightAir tempDewpointWater temp
2018-Apr-26 22:54N 29°44' W 095°13'0 0.0
2018-Apr-26 22:27N 29°44' W 095°13'0 0.0
2018-Apr-26 17:06N 29°44' W 095°13'0 0.0
2018-Apr-26 16:39N 29°44' W 095°13'0 0.0
2018-Apr-26 15:06N 29°44' W 095°13'0 0.0
2018-Apr-26 15:00N 29°44' W 095°13'0 0.0
2018-Apr-25 12:35N 29°44' W 095°13'0 0.0
2018-Apr-25 12:23N 29°44' W 095°13'0 0.0
2018-Apr-25 11:59N 29°44' W 095°13'0 0.0
2018-Apr-25 11:29N 29°44' W 095°13'0 0.0
2018-Apr-25 07:35N 29°44' W 095°13'0 0.0
2018-Apr-25 07:29N 29°44' W 095°13'0 0.0
2018-Apr-25 06:47N 29°44' W 095°13'0 0.0
2018-Apr-25 03:59N 29°44' W 095°13'0 0.0
2018-Apr-25 03:29N 29°44' W 095°13'0 0.0
2018-Apr-24 17:39N 29°44' W 095°13'0 0.0
2018-Apr-24 17:29N 29°44' W 095°13'1 1.2
2018-Apr-24 17:00N 29°44' W 095°12'2 3.9
2018-Apr-24 16:29N 29°45' W 095°10'2 5.1
2018-Apr-24 16:00N 29°44' W 095°08'3 5.3
2018-Apr-24 15:30N 29°46' W 095°05'3 6.0
2018-Apr-24 15:00N 29°44' W 095°03'3 5.6
2018-Apr-24 14:30N 29°42' W 095°00'4 7.7
2018-Apr-24 14:00N 29°39' W 094°58'4 8.4
2018-Apr-24 13:30N 29°35' W 094°56'5 9.4
2018-Apr-24 13:00N 29°31' W 094°53'5 9.7
2018-Apr-24 12:30N 29°27' W 094°50'5 9.2
2018-Apr-24 12:00N 29°22' W 094°48'4 7.4
2018-Apr-24 11:30N 29°21' W 094°45'5 8.9
2018-Apr-24 10:56N 29°19' W 094°39'3 7.9
2018-Apr-24 10:30N 29°18' W 094°35'1 2.7
2018-Apr-24 10:00N 29°17' W 094°34'2 4.8
2018-Apr-24 09:29N 29°15' W 094°32'3 6.4
2018-Apr-24 09:00N 29°13' W 094°30'3 6.5
2018-Apr-24 08:29N 29°11' W 094°27'4 7.0
2018-Apr-24 07:59N 29°08' W 094°25'  
2018-Apr-20 04:37N 25°32' W 079°30'110.4
2018-Apr-20 04:30N 25°33' W 079°30'510.3
2018-Apr-20 03:58N 25°39' W 079°29'510.4
2018-Apr-20 03:30N 25°43' W 079°28'510.2
2018-Apr-20 03:00N 25°48' W 079°27'  

Dump ship's entire track history